Time;durP1;ratioP1;P1;durP2;ratioP2;P2;SDS_P1;SDS_P2;PMS_P1;PMS_P2;Temp;Humidity;BMP_temperature;BMP_pressure;BME280_temperature;BME280_humidity;BME280_pressure;Samples;Min_cycle;Max_cycle;Signal;HPM_P1;HPM_P2
2023/05/08 00:02:01;;;;;;;4.93;3.80;;;23.10;79.20;;;;;;5027661;28;20455;-85
2023/05/08 00:04:28;;;;;;;4.00;3.70;;;23.10;79.20;;;;;;5031001;28;20477;-80
2023/05/08 00:06:55;;;;;;;4.50;4.10;;;23.10;79.20;;;;;;5032100;28;20816;-83
2023/05/08 00:09:23;;;;;;;5.63;4.20;;;23.10;79.20;;;;;;5031763;28;20486;-83
2023/05/08 00:11:50;;;;;;;4.07;3.77;;;23.00;79.10;;;;;;5025297;28;20443;-85
2023/05/08 00:14:16;;;;;;;4.50;3.60;;;23.00;79.10;;;;;;5023128;28;20444;-83
2023/05/08 00:16:43;;;;;;;3.80;3.50;;;23.00;79.10;;;;;;5028701;28;20473;-87
2023/05/08 00:19:10;;;;;;;4.27;3.97;;;23.00;79.00;;;;;;5031761;28;20455;-86
2023/05/08 00:21:36;;;;;;;3.77;3.47;;;23.00;79.00;;;;;;5027006;28;20447;-84
2023/05/08 00:24:03;;;;;;;3.80;3.40;;;23.00;79.00;;;;;;5026125;28;20859;-82
2023/05/08 00:26:31;;;;;;;3.20;3.00;;;23.00;78.90;;;;;;5029454;28;20469;-82
2023/05/08 00:28:58;;;;;;;3.80;3.50;;;23.00;79.00;;;;;;5031449;28;20537;-82
2023/05/08 00:31:25;;;;;;;4.00;3.70;;;23.00;79.00;;;;;;5029364;28;20455;-83
2023/05/08 00:33:51;;;;;;;4.60;4.20;;;23.00;78.90;;;;;;5028006;28;20443;-82
2023/05/08 00:36:18;;;;;;;5.20;4.73;;;22.90;78.70;;;;;;5030758;28;20995;-82
2023/05/08 00:38:45;;;;;;;4.17;3.77;;;22.90;78.80;;;;;;5030881;28;20446;-83
2023/05/08 00:41:11;;;;;;;3.97;3.67;;;22.90;78.80;;;;;;5029248;28;20454;-82
2023/05/08 00:43:39;;;;;;;4.07;3.77;;;22.90;78.70;;;;;;5031911;28;20446;-82
2023/05/08 00:46:08;;;;;;;4.57;3.47;;;22.90;78.70;;;;;;5029665;28;20937;-83
2023/05/08 00:48:36;;;;;;;3.73;3.50;;;22.90;78.70;;;;;;5031996;28;20489;-82
2023/05/08 00:51:04;;;;;;;4.17;3.87;;;22.90;78.70;;;;;;5031292;28;20459;-83
2023/05/08 00:53:35;;;;;;;4.13;3.73;;;22.90;78.70;;;;;;5028664;28;20776;-82
2023/05/08 00:56:02;;;;;;;3.53;3.23;;;22.90;78.70;;;;;;5031620;28;20443;-83
2023/05/08 00:58:30;;;;;;;4.27;3.83;;;22.80;78.60;;;;;;5028911;28;20452;-82
2023/05/08 01:00:58;;;;;;;3.80;3.50;;;22.80;78.60;;;;;;5024342;28;20532;-82
2023/05/08 01:03:25;;;;;;;4.13;3.83;;;22.80;78.50;;;;;;5026192;28;20448;-82
2023/05/08 01:05:52;;;;;;;3.70;3.47;;;22.80;78.70;;;;;;5032992;28;20447;-81
2023/05/08 01:08:19;;;;;;;4.20;3.80;;;22.80;78.60;;;;;;5047852;28;20467;-81
2023/05/08 01:10:52;;;;;;;4.17;3.77;;;22.80;78.60;;;;;;5048648;28;20474;-81
2023/05/08 01:13:28;;;;;;;3.77;3.50;;;22.80;78.60;;;;;;5047112;28;20470;-81
2023/05/08 01:16:03;;;;;;;3.60;3.30;;;22.80;78.60;;;;;;5047055;28;20502;-81
2023/05/08 01:18:36;;;;;;;4.20;3.90;;;22.80;78.60;;;;;;5041657;28;20458;-81
2023/05/08 01:21:09;;;;;;;4.53;4.17;;;22.70;78.50;;;;;;5042122;28;20454;-81
2023/05/08 01:24:10;;;;;;;3.53;3.30;;;22.70;78.50;;;;;;5047281;28;20413;-80
2023/05/08 01:27:14;;;;;;;4.10;3.70;;;22.70;78.60;;;;;;5042749;28;20465;-81
2023/05/08 01:30:07;;;;;;;3.77;3.47;;;22.70;78.60;;;;;;5044357;28;20474;-82
2023/05/08 01:32:38;;;;;;;4.40;4.00;;;22.70;78.50;;;;;;5043939;28;20452;-81
2023/05/08 01:35:16;;;;;;;4.00;3.70;;;22.70;78.70;;;;;;5043101;28;20463;-81
2023/05/08 01:37:50;;;;;;;4.13;3.77;;;22.70;78.50;;;;;;5038720;28;20583;-81
2023/05/08 01:40:24;;;;;;;4.17;3.77;;;22.70;78.50;;;;;;5047348;28;20455;-82
2023/05/08 01:43:00;;;;;;;3.07;2.87;;;22.60;78.50;;;;;;5047541;28;20431;-81
2023/05/08 01:45:31;;;;;;;4.07;3.77;;;22.60;78.50;;;;;;5042334;28;20447;-82
2023/05/08 01:48:05;;;;;;;3.97;3.60;;;22.60;78.50;;;;;;5045311;28;20443;-81
2023/05/08 01:50:36;;;;;;;4.00;3.17;;;22.60;78.50;;;;;;5049801;28;20443;-82
2023/05/08 01:53:08;;;;;;;3.73;3.43;;;22.60;78.50;;;;;;5046648;28;20514;-82
2023/05/08 01:55:37;;;;;;;3.57;3.27;;;22.60;78.40;;;;;;5047009;28;20499;-81
2023/05/08 01:58:08;;;;;;;3.57;3.27;;;22.60;78.50;;;;;;5039759;28;20454;-81
2023/05/08 02:00:38;;;;;;;3.80;3.50;;;22.60;78.50;;;;;;5042792;28;20450;-81
2023/05/08 02:03:08;;;;;;;3.33;3.10;;;22.60;78.50;;;;;;5037909;28;20445;-81
2023/05/08 02:05:36;;;;;;;3.87;3.57;;;22.60;78.60;;;;;;5040348;28;20465;-81
2023/05/08 02:08:04;;;;;;;3.33;3.13;;;22.50;78.50;;;;;;5035720;28;20450;-81
2023/05/08 02:10:31;;;;;;;3.33;3.03;;;22.50;78.50;;;;;;5042977;28;20446;-81
2023/05/08 02:13:01;;;;;;;3.20;2.90;;;22.50;78.40;;;;;;5041802;28;20466;-80
2023/05/08 02:15:30;;;;;;;3.40;3.10;;;22.50;78.40;;;;;;5039564;28;20458;-82
2023/05/08 02:17:58;;;;;;;3.70;3.40;;;22.50;78.60;;;;;;5041002;28;20787;-81
2023/05/08 02:20:28;;;;;;;4.20;3.40;;;22.50;78.50;;;;;;5044162;28;20462;-80
2023/05/08 02:22:56;;;;;;;6.30;3.67;;;22.50;78.50;;;;;;5041234;28;20459;-81
2023/05/08 02:25:25;;;;;;;3.20;3.00;;;22.50;78.50;;;;;;5041844;28;20457;-80
2023/05/08 02:27:54;;;;;;;2.93;2.73;;;22.50;79.30;;;;;;5038706;28;20994;-82
2023/05/08 02:30:24;;;;;;;4.40;3.40;;;22.40;78.40;;;;;;5029352;28;20490;-81
2023/05/08 02:32:53;;;;;;;3.97;3.67;;;22.40;78.40;;;;;;5025828;28;20444;-81
2023/05/08 02:35:20;;;;;;;4.03;3.63;;;22.40;78.70;;;;;;5030042;28;20925;-81
2023/05/08 02:37:52;;;;;;;4.23;3.83;;;22.40;78.40;;;;;;5027266;28;20486;-82
2023/05/08 02:40:22;;;;;;;3.15;2.90;;;22.40;78.50;;;;;;5027707;28;20475;-82
2023/05/08 02:42:49;;;;;;;3.30;3.10;;;22.40;78.40;;;;;;5025664;28;20646;-82
2023/05/08 02:45:16;;;;;;;3.37;3.17;;;22.40;78.50;;;;;;5023450;28;20845;-82
2023/05/08 02:47:51;;;;;;;10.83;4.03;;;22.40;78.50;;;;;;5024172;28;20455;-82
2023/05/08 02:50:21;;;;;;;3.25;3.05;;;22.40;78.50;;;;;;5021939;28;20482;-83
2023/05/08 02:52:52;;;;;;;3.13;2.85;;;22.40;78.50;;;;;;5028639;28;20216;-82
2023/05/08 02:55:32;;;;;;;3.80;3.43;;;22.40;78.50;;;;;;5020588;28;20207;-82
2023/05/08 02:58:10;;;;;;;3.50;3.20;;;22.40;78.60;;;;;;5027452;28;20489;-82
2023/05/08 03:00:43;;;;;;;3.40;3.10;;;22.30;78.40;;;;;;5021740;28;20973;-82
2023/05/08 03:03:15;;;;;;;3.63;3.33;;;22.30;78.50;;;;;;5030088;28;20490;-82
2023/05/08 03:05:48;;;;;;;3.20;3.00;;;22.30;78.50;;;;;;5027731;28;21159;-82
2023/05/08 03:08:19;;;;;;;3.63;3.33;;;22.30;78.50;;;;;;5026513;28;20459;-83
2023/05/08 03:10:51;;;;;;;3.30;3.00;;;22.30;78.50;;;;;;5023831;28;20556;-82
2023/05/08 03:13:20;;;;;;;2.80;2.60;;;22.30;78.50;;;;;;5022898;28;20455;-82
2023/05/08 03:15:52;;;;;;;3.77;3.50;;;22.30;78.40;;;;;;5025827;28;20650;-82
2023/05/08 03:18:21;;;;;;;3.63;3.33;;;22.30;78.50;;;;;;5028788;28;20961;-82
2023/05/08 03:20:51;;;;;;;3.30;3.00;;;22.30;78.50;;;;;;5024585;28;20447;-83
2023/05/08 03:23:21;;;;;;;2.97;2.77;;;22.30;78.40;;;;;;5025293;28;20459;-82
2023/05/08 03:25:48;;;;;;;3.75;3.45;;;22.30;78.50;;;;;;5028878;28;20463;-81
2023/05/08 03:28:15;;;;;;;3.33;3.03;;;22.20;78.40;;;;;;5029593;28;20643;-82
2023/05/08 03:30:42;;;;;;;3.30;3.10;;;22.20;78.40;;;;;;5026978;28;20207;-82
2023/05/08 03:33:11;;;;;;;3.47;3.22;;;22.20;78.50;;;;;;5030094;28;20443;-82
2023/05/08 03:35:39;;;;;;;3.20;2.97;;;22.20;78.50;;;;;;5027050;28;20266;-82
2023/05/08 03:38:06;;;;;;;3.40;3.17;;;22.20;78.40;;;;;;5026577;28;20953;-82
2023/05/08 03:40:37;;;;;;;3.30;2.83;;;22.20;78.50;;;;;;5028913;28;20447;-82
2023/05/08 03:43:06;;;;;;;3.50;3.20;;;22.20;78.40;;;;;;5024672;28;20504;-82
2023/05/08 03:45:35;;;;;;;3.67;3.38;;;22.20;78.40;;;;;;5027644;28;20457;-81
2023/05/08 03:48:04;;;;;;;3.57;3.37;;;22.20;78.50;;;;;;5027016;28;20197;-82
2023/05/08 03:50:31;;;;;;;3.63;3.33;;;22.20;78.40;;;;;;5027232;28;20896;-82
2023/05/08 03:52:58;;;;;;;3.67;3.37;;;22.10;78.40;;;;;;5029626;28;20917;-82
2023/05/08 03:55:25;;;;;;;3.03;2.83;;;22.20;78.40;;;;;;5024875;28;20442;-81
2023/05/08 03:57:59;;;;;;;2.65;2.45;;;22.20;78.60;;;;;;5022674;28;20462;-81
2023/05/08 04:00:33;;;;;;;3.10;2.90;;;22.20;78.50;;;;;;5027514;28;20562;-85
2023/05/08 04:03:11;;;;;;;2.57;2.37;;;22.20;78.50;;;;;;5028966;28;20207;-81
2023/05/08 04:05:46;;;;;;;3.70;3.40;;;22.20;78.50;;;;;;5019020;28;20500;-82
2023/05/08 04:08:17;;;;;;;2.83;2.57;;;22.10;78.40;;;;;;5019800;28;20505;-84
2023/05/08 04:10:52;;;;;;;2.87;2.67;;;22.10;78.40;;;;;;5025002;28;21042;-86
2023/05/08 04:13:25;;;;;;;3.70;3.40;;;22.10;78.40;;;;;;5031503;28;20474;-83
2023/05/08 04:16:06;;;;;;;6.40;3.30;;;22.10;78.60;;;;;;5025459;28;20462;-83
2023/05/08 04:18:37;;;;;;;3.97;3.67;;;22.00;78.90;;;;;;5028905;28;20956;-83
2023/05/08 04:21:09;;;;;;;4.20;3.90;;;22.10;79.30;;;;;;5028974;28;20462;-82
2023/05/08 04:23:38;;;;;;;3.37;3.07;;;22.10;79.70;;;;;;5028491;28;20988;-83
2023/05/08 04:26:06;;;;;;;2.73;2.53;;;22.10;79.60;;;;;;5022682;28;20463;-82
2023/05/08 04:28:35;;;;;;;4.17;3.60;;;22.10;79.60;;;;;;5025956;28;20969;-82
2023/05/08 04:31:03;;;;;;;3.50;3.20;;;22.00;79.50;;;;;;5031179;28;20465;-83
2023/05/08 04:33:31;;;;;;;3.60;3.30;;;22.00;79.30;;;;;;5030206;28;20738;-83
2023/05/08 04:36:01;;;;;;;3.23;3.03;;;22.00;79.50;;;;;;5031112;28;20478;-82
2023/05/08 04:38:27;;;;;;;3.72;3.42;;;22.00;79.30;;;;;;5026903;28;20973;-82
2023/05/08 04:40:54;;;;;;;3.53;3.22;;;22.00;79.40;;;;;;5028628;28;20230;-82
2023/05/08 04:43:21;;;;;;;3.40;3.10;;;22.00;79.40;;;;;;5029306;28;20701;-83
2023/05/08 04:45:49;;;;;;;2.95;2.75;;;22.00;79.50;;;;;;5026840;28;20656;-82
2023/05/08 04:48:17;;;;;;;3.63;3.33;;;22.00;79.50;;;;;;5021394;28;20216;-82
2023/05/08 04:50:44;;;;;;;4.38;2.45;;;22.00;79.50;;;;;;5016081;28;20648;-83
2023/05/08 04:53:11;;;;;;;2.88;2.67;;;22.00;79.50;;;;;;5021434;28;20208;-82
2023/05/08 04:55:38;;;;;;;3.93;3.37;;;22.00;79.50;;;;;;5029753;28;20212;-82
2023/05/08 04:58:04;;;;;;;3.37;3.17;;;22.00;79.40;;;;;;5030001;28;20795;-82
2023/05/08 05:00:31;;;;;;;3.30;3.10;;;21.90;79.30;;;;;;5027525;28;20489;-82
2023/05/08 05:02:59;;;;;;;3.63;3.37;;;21.90;79.40;;;;;;5029638;28;20211;-82
2023/05/08 05:05:26;;;;;;;3.25;2.95;;;21.90;79.30;;;;;;5030173;28;20987;-82
2023/05/08 05:07:53;;;;;;;2.80;2.60;;;21.90;79.40;;;;;;5030236;28;20204;-82
2023/05/08 05:10:20;;;;;;;2.73;2.53;;;21.90;79.40;;;;;;5026677;28;20561;-82
2023/05/08 05:12:46;;;;;;;3.20;2.90;;;21.90;79.40;;;;;;5024996;28;20969;-83
2023/05/08 05:15:13;;;;;;;9.25;4.03;;;21.90;79.50;;;;;;5021353;28;20228;-82
2023/05/08 05:17:40;;;;;;;3.63;3.33;;;21.90;79.40;;;;;;5028872;28;20196;-82
2023/05/08 05:20:10;;;;;;;3.10;2.90;;;21.90;79.30;;;;;;5030985;28;21142;-82
2023/05/08 05:22:36;;;;;;;3.38;3.08;;;21.90;80.10;;;;;;5028887;28;20287;-83
2023/05/08 05:25:04;;;;;;;3.67;3.38;;;21.90;79.40;;;;;;5031998;28;20227;-83
2023/05/08 05:27:31;;;;;;;3.25;3.05;;;21.90;79.30;;;;;;5024064;28;20204;-83
2023/05/08 05:29:58;;;;;;;3.10;2.85;;;21.90;79.20;;;;;;5026000;28;20220;-82
2023/05/08 05:32:24;;;;;;;3.40;3.10;;;21.90;79.40;;;;;;5025888;28;20211;-83
2023/05/08 05:34:52;;;;;;;3.10;2.80;;;21.90;79.20;;;;;;5029718;28;20567;-83
2023/05/08 05:37:20;;;;;;;2.80;2.60;;;22.00;79.40;;;;;;5033100;28;20232;-83
2023/05/08 05:39:47;;;;;;;2.65;2.45;;;22.00;79.20;;;;;;5027189;28;20462;-82
2023/05/08 05:42:15;;;;;;;2.70;2.50;;;22.00;79.20;;;;;;5027511;28;20204;-83
2023/05/08 05:44:41;;;;;;;3.60;3.40;;;22.00;79.20;;;;;;5028001;28;20489;-82
2023/05/08 05:47:09;;;;;;;3.07;2.87;;;22.00;79.10;;;;;;5029640;28;20446;-82
2023/05/08 05:49:38;;;;;;;2.63;2.43;;;22.00;79.10;;;;;;5025920;28;20490;-83
2023/05/08 05:52:05;;;;;;;2.73;2.50;;;22.00;79.10;;;;;;5032477;28;20826;-82
2023/05/08 05:54:33;;;;;;;2.67;2.47;;;22.00;79.00;;;;;;5026294;28;20458;-83
2023/05/08 05:57:00;;;;;;;2.93;2.40;;;22.00;79.10;;;;;;5030130;28;20471;-81
2023/05/08 05:59:26;;;;;;;2.47;2.27;;;22.00;79.00;;;;;;5023498;28;20956;-81
2023/05/08 06:01:53;;;;;;;2.63;2.42;;;22.00;79.00;;;;;;5029430;28;20983;-81
2023/05/08 06:04:20;;;;;;;2.67;2.47;;;22.00;79.10;;;;;;5030484;28;20207;-81
2023/05/08 06:06:57;;;;;;;2.30;2.10;;;22.00;79.00;;;;;;5026011;28;20465;-82
2023/05/08 06:09:24;;;;;;;2.50;2.40;;;22.00;79.10;;;;;;5025683;28;20466;-81
2023/05/08 06:11:52;;;;;;;2.95;2.75;;;22.00;79.00;;;;;;5027919;28;20465;-81
2023/05/08 06:14:19;;;;;;;2.50;2.30;;;22.00;79.00;;;;;;5026379;28;20207;-81
2023/05/08 06:16:45;;;;;;;2.90;2.70;;;22.00;78.90;;;;;;5026999;28;20464;-81
2023/05/08 06:19:12;;;;;;;3.00;2.80;;;22.10;79.00;;;;;;5026606;28;20798;-82
2023/05/08 06:21:39;;;;;;;3.10;2.77;;;22.00;78.90;;;;;;5029006;28;20439;-81
2023/05/08 06:24:06;;;;;;;2.63;2.43;;;22.10;78.90;;;;;;5030227;28;20519;-81
2023/05/08 06:26:33;;;;;;;2.90;2.70;;;22.10;78.90;;;;;;5021478;28;20463;-81
2023/05/08 06:29:01;;;;;;;2.53;2.33;;;22.10;79.00;;;;;;5027758;28;20973;-81
2023/05/08 06:31:28;;;;;;;2.40;2.20;;;22.10;78.90;;;;;;5026961;28;20505;-82
2023/05/08 06:33:54;;;;;;;3.03;2.50;;;22.10;78.90;;;;;;5025614;28;20464;-81
2023/05/08 06:36:21;;;;;;;2.50;2.30;;;22.10;78.90;;;;;;5027966;28;20487;-82
2023/05/08 06:38:48;;;;;;;2.60;2.40;;;22.10;78.90;;;;;;5025152;28;20626;-81
2023/05/08 06:41:15;;;;;;;2.57;2.37;;;22.10;78.80;;;;;;5025634;28;20447;-81
2023/05/08 06:43:42;;;;;;;2.70;2.50;;;22.10;78.80;;;;;;5028752;28;20793;-82
2023/05/08 06:46:10;;;;;;;2.77;2.57;;;22.10;78.70;;;;;;5028546;28;20470;-81
2023/05/08 06:48:37;;;;;;;2.20;2.00;;;22.10;78.70;;;;;;5025047;28;20465;-82
2023/05/08 06:51:06;;;;;;;2.37;2.17;;;22.10;78.70;;;;;;5023208;28;20491;-82
2023/05/08 06:53:33;;;;;;;2.50;2.30;;;22.10;78.60;;;;;;5026268;28;20455;-82
2023/05/08 06:55:59;;;;;;;2.20;2.00;;;22.10;78.70;;;;;;5029112;28;20455;-82
2023/05/08 06:58:26;;;;;;;2.57;2.37;;;22.10;78.70;;;;;;5024642;28;20558;-81
2023/05/08 07:00:53;;;;;;;2.30;2.10;;;22.10;78.70;;;;;;5027441;28;20854;-82
2023/05/08 07:03:21;;;;;;;2.70;2.50;;;22.10;78.60;;;;;;5024331;28;20975;-81
2023/05/08 07:05:47;;;;;;;2.90;2.70;;;22.10;78.60;;;;;;5022575;28;20473;-82
2023/05/08 07:08:14;;;;;;;3.00;2.80;;;22.10;78.60;;;;;;5022904;28;20940;-82
2023/05/08 07:10:41;;;;;;;2.30;2.20;;;22.10;78.60;;;;;;5030070;28;20489;-81
2023/05/08 07:13:08;;;;;;;2.47;2.27;;;22.10;78.50;;;;;;5024944;28;20526;-81
2023/05/08 07:15:34;;;;;;;2.93;2.70;;;22.10;78.50;;;;;;5027737;28;20842;-81
2023/05/08 07:18:01;;;;;;;2.50;2.30;;;22.10;78.50;;;;;;5023336;28;20454;-81
2023/05/08 07:20:30;;;;;;;2.53;2.00;;;22.10;78.50;;;;;;5025035;28;20859;-81
2023/05/08 07:22:56;;;;;;;2.40;2.20;;;22.10;78.50;;;;;;5026255;28;20466;-82
2023/05/08 07:25:23;;;;;;;2.50;2.30;;;22.10;78.50;;;;;;5023855;28;20467;-83
2023/05/08 07:27:50;;;;;;;2.57;2.37;;;22.10;79.10;;;;;;5022921;28;20549;-84
2023/05/08 07:30:17;;;;;;;2.60;2.40;;;22.10;79.20;;;;;;5027274;28;20482;-83
2023/05/08 07:32:43;;;;;;;2.30;2.10;;;22.10;79.00;;;;;;5023982;28;20471;-81
2023/05/08 07:35:11;;;;;;;2.87;2.67;;;22.10;78.80;;;;;;5024326;28;20465;-82
2023/05/08 07:37:39;;;;;;;4.20;3.90;;;22.10;79.10;;;;;;5022263;28;20498;-81
2023/05/08 07:40:07;;;;;;;3.30;2.87;;;22.10;79.00;;;;;;5024821;28;20466;-81
2023/05/08 07:42:39;;;;;;;3.70;3.40;;;22.10;78.90;;;;;;5027868;28;20459;-80
2023/05/08 07:45:07;;;;;;;3.60;2.70;;;22.00;78.90;;;;;;5021438;28;20455;-83
2023/05/08 07:47:34;;;;;;;2.70;2.50;;;22.00;79.00;;;;;;5024403;28;20462;-83
2023/05/08 07:50:01;;;;;;;8.73;3.20;;;22.00;79.80;;;;;;5028808;28;20951;-83
2023/05/08 07:52:27;;;;;;;3.30;3.00;;;22.00;81.00;;;;;;5021619;28;20462;-84
2023/05/08 07:54:56;;;;;;;4.80;3.03;;;22.00;81.50;;;;;;5028061;28;20806;-84
2023/05/08 07:57:23;;;;;;;4.20;3.90;;;22.00;81.50;;;;;;5025787;28;20462;-85
2023/05/08 07:59:50;;;;;;;5.90;3.80;;;22.10;82.00;;;;;;5026629;28;20931;-85
2023/05/08 08:02:17;;;;;;;5.43;4.30;;;22.00;82.50;;;;;;5027275;28;20469;-86
2023/05/08 08:04:44;;;;;;;6.73;4.20;;;22.00;82.30;;;;;;5024597;28;20474;-85
2023/05/08 08:07:11;;;;;;;5.77;5.27;;;22.00;82.30;;;;;;5025964;28;20557;-86
2023/05/08 08:09:37;;;;;;;4.90;4.50;;;22.00;82.10;;;;;;5027088;28;20466;-83
2023/05/08 08:12:06;;;;;;;4.67;3.43;;;22.10;82.90;;;;;;5025756;28;20548;-87
2023/05/08 08:14:33;;;;;;;4.68;4.30;;;22.10;82.90;;;;;;5027077;28;20458;-88
2023/05/08 08:17:00;;;;;;;4.13;3.80;;;22.10;82.40;;;;;;5032058;28;20210;-88
2023/05/08 08:19:26;;;;;;;3.57;3.27;;;22.10;82.60;;;;;;5023322;28;20458;-88
2023/05/08 08:21:53;;;;;;;4.50;3.93;;;22.10;82.40;;;;;;5029216;28;20960;-87
2023/05/08 08:24:20;;;;;;;3.23;2.93;;;22.10;82.50;;;;;;5031536;28;20465;-86
2023/05/08 08:26:47;;;;;;;3.30;2.63;;;22.10;82.70;;;;;;5030014;28;20462;-87
2023/05/08 08:29:15;;;;;;;3.53;3.23;;;22.10;82.90;;;;;;5024402;28;20459;-82
2023/05/08 08:31:41;;;;;;;3.70;3.40;;;22.00;82.50;;;;;;5026381;28;20849;-85
2023/05/08 08:34:11;;;;;;;2.60;2.40;;;22.10;82.70;;;;;;5027484;28;20832;-83
2023/05/08 08:36:39;;;;;;;3.57;3.37;;;22.10;82.80;;;;;;5026619;28;20495;-84
2023/05/08 08:39:05;;;;;;;4.03;3.73;;;22.10;82.80;;;;;;5025686;28;20937;-83
2023/05/08 08:41:34;;;;;;;6.73;3.50;;;22.10;82.90;;;;;;5026132;28;20466;-82
2023/05/08 08:44:01;;;;;;;3.97;3.50;;;22.10;82.90;;;;;;5032416;28;20455;-82
2023/05/08 08:46:32;;;;;;;4.30;3.90;;;22.10;83.00;;;;;;5025724;28;20465;-81
2023/05/08 08:48:59;;;;;;;3.70;3.00;;;22.10;82.60;;;;;;5021654;28;20459;-80
2023/05/08 08:51:28;;;;;;;8.30;3.10;;;22.10;82.90;;;;;;5030696;28;20977;-80
2023/05/08 08:54:02;;;;;;;6.30;3.20;;;22.10;83.50;;;;;;5031920;28;20459;-81
2023/05/08 08:56:30;;;;;;;4.57;2.93;;;22.10;82.60;;;;;;5024721;28;20547;-81
2023/05/08 08:58:58;;;;;;;2.97;2.67;;;22.10;82.50;;;;;;5018599;28;20468;-81
2023/05/08 09:01:28;;;;;;;3.77;3.47;;;22.10;82.30;;;;;;5019649;28;20725;-80
2023/05/08 09:03:59;;;;;;;3.60;3.03;;;22.10;82.10;;;;;;5021068;28;20589;-80
2023/05/08 09:06:27;;;;;;;2.80;2.60;;;22.10;81.90;;;;;;5029411;28;20513;-81
2023/05/08 09:08:56;;;;;;;3.00;2.67;;;22.10;81.80;;;;;;5029306;28;20458;-80
2023/05/08 09:11:23;;;;;;;3.17;2.93;;;22.10;81.80;;;;;;5030266;28;20475;-80
2023/05/08 09:13:50;;;;;;;3.07;2.87;;;22.00;81.50;;;;;;5028270;28;20463;-81
2023/05/08 09:16:17;;;;;;;4.40;3.03;;;22.10;81.60;;;;;;5026169;28;20470;-80
2023/05/08 09:18:44;;;;;;;4.33;3.30;;;22.10;81.60;;;;;;5025165;28;20455;-81
2023/05/08 09:21:13;;;;;;;4.57;2.90;;;22.10;81.50;;;;;;5028768;28;20550;-80
2023/05/08 09:23:55;;;;;;;4.67;3.63;;;22.10;81.40;;;;;;5030162;28;20473;-80
2023/05/08 09:26:31;;;;;;;6.43;2.80;;;22.10;81.30;;;;;;5028659;28;20463;-81
2023/05/08 09:29:11;;;;;;;5.50;3.30;;;22.10;81.20;;;;;;5029049;28;20466;-80
2023/05/08 09:31:40;;;;;;;3.13;2.93;;;22.10;81.10;;;;;;5026679;28;20490;-81
2023/05/08 09:34:07;;;;;;;3.67;3.17;;;22.10;81.00;;;;;;5029416;28;20478;-80
2023/05/08 09:36:38;;;;;;;2.80;2.60;;;22.10;81.00;;;;;;5029009;28;20992;-81
2023/05/08 09:39:10;;;;;;;2.73;2.53;;;22.20;81.00;;;;;;5018149;28;20513;-81
2023/05/08 09:41:36;;;;;;;6.07;3.47;;;22.20;81.00;;;;;;5015193;28;20498;-80
2023/05/08 09:44:04;;;;;;;2.87;2.60;;;22.20;80.90;;;;;;5030546;28;20637;-81
2023/05/08 09:46:32;;;;;;;3.33;2.50;;;22.20;80.90;;;;;;5025744;28;20459;-81
2023/05/08 09:49:01;;;;;;;4.03;3.10;;;22.20;80.80;;;;;;5021494;28;20517;-81
2023/05/08 09:51:30;;;;;;;2.90;2.43;;;22.20;80.70;;;;;;5019494;28;20486;-82
2023/05/08 09:53:59;;;;;;;2.67;2.47;;;22.10;81.40;;;;;;5026093;28;20463;-80
2023/05/08 09:56:30;;;;;;;4.07;2.77;;;22.20;80.60;;;;;;5013617;28;20583;-80
2023/05/08 09:58:57;;;;;;;2.97;2.60;;;22.20;80.60;;;;;;5018912;28;20956;-82
2023/05/08 10:01:35;;;;;;;3.37;3.07;;;22.20;80.60;;;;;;5017041;28;20965;-80
2023/05/08 10:04:02;;;;;;;4.63;4.20;;;22.20;80.50;;;;;;5023445;28;20516;-80
2023/05/08 10:06:31;;;;;;;8.20;4.20;;;22.20;81.00;;;;;;5019482;28;21003;-80
2023/05/08 10:09:09;;;;;;;8.83;3.90;;;22.20;81.50;;;;;;5021678;28;20199;-81
2023/05/08 10:11:37;;;;;;;2.47;2.27;;;22.20;81.90;;;;;;5024400;28;20478;-85
2023/05/08 10:14:04;;;;;;;12.67;3.30;;;22.20;82.40;;;;;;5023303;28;20459;-80
2023/05/08 10:16:36;;;;;;;7.67;3.43;;;22.20;83.00;;;;;;5025324;28;20466;-79
2023/05/08 10:19:08;;;;;;;9.03;3.57;;;22.20;83.40;;;;;;5017909;28;20463;-79
2023/05/08 10:21:37;;;;;;;3.30;3.10;;;22.20;83.50;;;;;;5026637;28;20462;-81
2023/05/08 10:24:16;;;;;;;4.17;3.37;;;22.10;83.90;;;;;;5023447;28;20573;-90
2023/05/08 10:26:45;;;;;;;7.03;3.10;;;22.20;83.00;;;;;;5027697;28;20442;-87
2023/05/08 10:29:19;;;;;;;5.17;3.20;;;22.30;82.90;;;;;;5026669;28;20818;-88
2023/05/08 10:31:49;;;;;;;3.30;2.97;;;22.30;83.20;;;;;;5029141;28;20477;-87
2023/05/08 10:34:22;;;;;;;3.40;2.33;;;22.30;83.10;;;;;;5030446;28;20783;-88
2023/05/08 10:36:51;;;;;;;3.43;2.87;;;22.40;82.90;;;;;;5018319;28;20475;-89
2023/05/08 10:39:21;;;;;;;4.67;3.30;;;22.40;83.00;;;;;;5022029;28;20641;-85
2023/05/08 10:41:49;;;;;;;2.90;2.63;;;22.40;83.30;;;;;;5026403;28;20833;-87
2023/05/08 10:44:21;;;;;;;4.97;2.30;;;22.40;83.20;;;;;;5023124;28;20862;-90
2023/05/08 10:46:54;;;;;;;3.00;2.80;;;22.50;83.10;;;;;;5016852;28;21046;-90
2023/05/08 10:49:31;;;;;;;2.70;2.50;;;22.50;82.80;;;;;;5019789;28;20517;-90
2023/05/08 10:52:12;;;;;;;3.20;2.40;;;22.50;83.00;;;;;;5022421;28;21030;-91
2023/05/08 10:55:03;;;;;;;3.50;2.70;;;22.60;83.30;;;;;;5018942;28;21048;-89
2023/05/08 10:57:30;;;;;;;5.80;3.60;;;22.60;83.00;;;;;;5021482;28;20900;-89
2023/05/08 10:59:57;;;;;;;2.87;2.60;;;22.60;82.90;;;;;;5016109;28;20467;-88
2023/05/08 11:02:28;;;;;;;3.23;2.93;;;22.70;82.90;;;;;;5027158;28;20454;-85
2023/05/08 11:04:55;;;;;;;3.40;3.10;;;22.70;83.10;;;;;;5023089;28;20519;-86
2023/05/08 11:07:30;;;;;;;3.30;3.00;;;22.70;82.90;;;;;;5025063;28;20463;-85
2023/05/08 11:10:07;;;;;;;3.40;3.10;;;22.80;83.30;;;;;;5028032;28;20465;-87
2023/05/08 11:12:36;;;;;;;3.20;2.60;;;22.80;83.10;;;;;;5027547;28;20510;-89
2023/05/08 11:15:06;;;;;;;2.63;2.43;;;22.80;82.90;;;;;;5024998;28;20455;-85
2023/05/08 11:17:33;;;;;;;3.27;2.47;;;22.80;82.80;;;;;;5026319;28;20833;-81
2023/05/08 11:20:02;;;;;;;3.10;2.80;;;22.90;82.80;;;;;;5027534;28;20446;-84
2023/05/08 11:22:31;;;;;;;3.13;2.67;;;22.90;82.60;;;;;;5026058;28;20870;-83
2023/05/08 11:25:10;;;;;;;4.80;2.83;;;22.90;82.70;;;;;;5026911;28;20554;-86
2023/05/08 11:28:05;;;;;;;4.07;2.60;;;22.90;82.60;;;;;;5033794;28;20456;-84
2023/05/08 11:30:40;;;;;;;3.20;2.53;;;23.00;82.60;;;;;;5030760;28;20458;-85
2023/05/08 11:33:29;;;;;;;2.90;2.40;;;23.00;82.60;;;;;;5028749;28;20546;-83
2023/05/08 11:35:57;;;;;;;3.07;2.87;;;23.10;82.90;;;;;;5027763;28;20526;-83
2023/05/08 11:38:30;;;;;;;6.03;2.70;;;23.10;82.50;;;;;;5029877;28;21028;-80
2023/05/08 11:41:03;;;;;;;3.10;2.90;;;23.10;82.60;;;;;;5024054;28;20802;-84
2023/05/08 11:44:13;;;;;;;3.40;3.10;;;23.10;83.40;;;;;;5019063;28;20454;-82
2023/05/08 11:46:42;;;;;;;3.40;2.80;;;23.10;83.20;;;;;;5010570;28;20451;-83
2023/05/08 11:49:12;;;;;;;9.90;3.50;;;23.20;83.00;;;;;;5018054;28;21072;-82
2023/05/08 11:51:43;;;;;;;2.53;2.33;;;23.20;82.80;;;;;;5019263;28;20490;-82
2023/05/08 11:54:11;;;;;;;2.50;2.30;;;23.20;82.70;;;;;;5022828;28;20458;-87
2023/05/08 11:56:40;;;;;;;2.43;2.23;;;23.20;82.80;;;;;;5016906;28;20466;-86
2023/05/08 11:59:08;;;;;;;3.17;2.97;;;23.30;82.70;;;;;;5021122;28;20945;-88
2023/05/08 12:01:35;;;;;;;3.33;2.60;;;23.30;82.70;;;;;;5017499;28;20522;-84
2023/05/08 12:04:04;;;;;;;4.10;2.53;;;23.30;82.60;;;;;;5024300;28;20461;-81
2023/05/08 12:06:31;;;;;;;3.70;3.00;;;23.30;82.50;;;;;;5018506;28;20556;-79
2023/05/08 12:08:58;;;;;;;3.93;3.53;;;23.30;83.10;;;;;;5023787;28;20553;-80
2023/05/08 12:11:25;;;;;;;4.13;3.83;;;23.30;83.70;;;;;;5017700;28;20518;-78
2023/05/08 12:13:54;;;;;;;5.30;4.80;;;23.20;84.30;;;;;;5020467;28;20462;-77
2023/05/08 12:16:23;;;;;;;7.30;5.57;;;23.20;84.80;;;;;;5019225;28;20686;-80
2023/05/08 12:18:51;;;;;;;6.73;5.60;;;23.20;85.00;;;;;;5018851;28;20550;-80
2023/05/08 12:21:18;;;;;;;6.43;5.00;;;23.20;85.60;;;;;;5028764;28;20956;-79
2023/05/08 12:23:45;;;;;;;5.27;4.87;;;23.20;85.70;;;;;;5020559;28;20474;-78
2023/05/08 12:26:12;;;;;;;4.53;4.13;;;23.20;85.40;;;;;;5020898;28;20459;-81
2023/05/08 12:28:39;;;;;;;5.70;3.77;;;23.20;85.20;;;;;;5021361;28;20466;-81
2023/05/08 12:31:07;;;;;;;3.80;2.93;;;23.20;84.60;;;;;;5023277;28;20950;-83
2023/05/08 12:33:34;;;;;;;9.80;3.20;;;23.30;84.40;;;;;;5026447;28;20510;-82
2023/05/08 12:36:04;;;;;;;2.77;2.47;;;23.30;84.20;;;;;;5029175;28;20467;-82
2023/05/08 12:38:31;;;;;;;3.00;2.73;;;23.40;83.90;;;;;;5026224;28;20462;-80
2023/05/08 12:40:59;;;;;;;2.73;2.53;;;23.40;83.80;;;;;;5031148;28;20823;-78
2023/05/08 12:43:33;;;;;;;4.83;4.17;;;23.40;83.70;;;;;;5031037;28;20450;-78
2023/05/08 12:46:04;;;;;;;4.00;3.37;;;23.40;84.50;;;;;;5029005;28;20522;-83
2023/05/08 12:48:32;;;;;;;4.57;3.30;;;23.40;84.60;;;;;;5025326;28;21052;-83
2023/05/08 12:51:04;;;;;;;4.30;3.30;;;23.40;84.30;;;;;;5022930;28;20454;-86
2023/05/08 12:53:38;;;;;;;4.60;4.20;;;23.40;84.10;;;;;;5019870;28;20482;-91
2023/05/08 12:56:05;;;;;;;4.37;3.97;;;23.40;84.60;;;;;;5027810;28;20550;-91
2023/05/08 12:58:34;;;;;;;4.37;3.80;;;23.40;85.00;;;;;;5028738;28;20463;-91
2023/05/08 13:01:11;;;;;;;4.37;3.97;;;23.40;85.40;;;;;;5022735;28;20463;-83